Time;durP1;ratioP1;P1;durP2;ratioP2;P2;SDS_P1;SDS_P2;PMS_P1;PMS_P2;Temp;Humidity;BMP_temperature;BMP_pressure;BME280_temperature;BME280_humidity;BME280_pressure;Samples;Min_cycle;Max_cycle;Signal;HPM_P1;HPM_P2
2022/09/05 00:02:29;;;;;;;0.80;0.60;;;;;;;;;;10508649;28;20060;-79
2022/09/05 00:07:45;;;;;;;0.60;0.45;;;;;;;;;;10518151;28;20044;-80
2022/09/05 00:12:49;;;;;;;0.40;0.40;;;;;;;;;;10524532;28;20048;-80
2022/09/05 00:18:13;;;;;;;0.68;0.68;;;;;;;;;;10519061;28;20119;-79
2022/09/05 00:23:28;;;;;;;0.80;0.80;;;;;;;;;;10491378;28;20064;-79
2022/09/05 00:28:40;;;;;;;1.67;0.65;;;;;;;;;;10527214;28;20126;-80
2022/09/05 00:33:59;;;;;;;1.40;0.77;;;;;;;;;;10526749;28;20564;-80
2022/09/05 00:39:09;;;;;;;1.05;0.60;;;;;;;;;;10501141;28;20056;-80
2022/09/05 00:44:14;;;;;;;2.78;0.70;;;;;;;;;;10497917;28;20071;-80
2022/09/05 00:49:24;;;;;;;1.17;0.70;;;;;;;;;;10534863;28;20465;-82
2022/09/05 00:55:07;;;;;;;0.70;0.70;;;;;;;;;;10509957;28;20036;-79
2022/09/05 01:00:17;;;;;;;0.93;0.88;;;;;;;;;;10510697;28;20072;-80
2022/09/05 01:05:35;;;;;;;0.52;0.52;;;;;;;;;;10517106;28;20040;-80
2022/09/05 01:10:49;;;;;;;1.27;0.82;;;;;;;;;;10511060;28;20119;-80
2022/09/05 01:15:59;;;;;;;0.63;0.63;;;;;;;;;;10499718;28;20585;-81
2022/09/05 01:21:39;;;;;;;0.75;0.70;;;;;;;;;;10499776;28;20032;-80
2022/09/05 01:26:58;;;;;;;0.60;0.60;;;;;;;;;;10396352;28;20064;-79
2022/09/05 01:32:18;;;;;;;1.08;0.60;;;;;;;;;;10515918;28;20101;-80
2022/09/05 01:37:28;;;;;;;1.85;0.60;;;;;;;;;;10466374;28;20124;-79
2022/09/05 01:42:38;;;;;;;0.75;0.50;;;;;;;;;;10508890;28;20063;-80
2022/09/05 01:47:51;;;;;;;0.73;0.68;;;;;;;;;;10483078;28;20048;-80
2022/09/05 01:53:11;;;;;;;1.05;0.90;;;;;;;;;;10492403;28;20060;-80
2022/09/05 01:58:20;;;;;;;2.15;0.90;;;;;;;;;;10502721;28;20044;-81
2022/09/05 02:03:34;;;;;;;1.02;0.90;;;;;;;;;;10499465;28;20076;-80
2022/09/05 02:08:54;;;;;;;0.63;0.63;;;;;;;;;;10504635;28;20112;-80
2022/09/05 02:14:03;;;;;;;1.10;0.75;;;;;;;;;;10506057;28;20127;-80
2022/09/05 02:19:15;;;;;;;0.80;0.73;;;;;;;;;;10500946;28;20104;-79
2022/09/05 02:24:23;;;;;;;1.00;0.88;;;;;;;;;;10501666;28;20051;-80
2022/09/05 02:29:35;;;;;;;0.70;0.70;;;;;;;;;;10496849;28;20040;-80
2022/09/05 02:34:47;;;;;;;1.15;0.70;;;;;;;;;;10499866;28;20051;-80
2022/09/05 02:39:57;;;;;;;0.63;0.50;;;;;;;;;;10494840;28;20056;-80
2022/09/05 02:45:28;;;;;;;0.57;0.57;;;;;;;;;;10495439;28;20102;-80
2022/09/05 02:50:45;;;;;;;1.20;0.70;;;;;;;;;;10497827;28;20032;-80
2022/09/05 02:56:19;;;;;;;1.10;0.77;;;;;;;;;;10518184;28;20036;-80
2022/09/05 03:01:38;;;;;;;1.88;0.60;;;;;;;;;;10503867;28;20059;-80
2022/09/05 03:06:52;;;;;;;0.82;0.70;;;;;;;;;;10514611;28;20052;-80
2022/09/05 03:12:28;;;;;;;1.17;0.80;;;;;;;;;;10491085;28;20056;-80
2022/09/05 03:18:06;;;;;;;1.13;0.70;;;;;;;;;;10504015;28;20450;-79
2022/09/05 03:23:41;;;;;;;0.90;0.70;;;;;;;;;;10481742;28;20032;-80
2022/09/05 03:29:24;;;;;;;0.90;0.80;;;;;;;;;;10472601;28;20135;-80
2022/09/05 03:35:02;;;;;;;2.25;0.70;;;;;;;;;;10496745;28;20035;-79
2022/09/05 03:40:35;;;;;;;0.75;0.70;;;;;;;;;;10481915;28;20131;-80
2022/09/05 03:45:50;;;;;;;0.82;0.82;;;;;;;;;;10502743;28;20089;-79
2022/09/05 03:51:03;;;;;;;1.00;0.73;;;;;;;;;;10517875;28;20093;-80
2022/09/05 03:56:22;;;;;;;0.82;0.57;;;;;;;;;;10528107;28;20052;-79
2022/09/05 04:01:34;;;;;;;0.65;0.65;;;;;;;;;;10511920;28;20557;-80
2022/09/05 04:06:42;;;;;;;1.98;0.82;;;;;;;;;;10518132;28;20051;-79
2022/09/05 04:11:50;;;;;;;0.80;0.80;;;;;;;;;;10518907;28;20591;-80
2022/09/05 04:16:56;;;;;;;0.93;0.80;;;;;;;;;;10536329;28;20139;-80
2022/09/05 04:22:12;;;;;;;0.90;0.80;;;;;;;;;;10501389;28;20071;-80
2022/09/05 04:27:37;;;;;;;1.27;0.95;;;;;;;;;;10508547;28;20134;-80
2022/09/05 04:32:53;;;;;;;1.20;0.90;;;;;;;;;;10501550;28;20063;-80
2022/09/05 04:38:05;;;;;;;1.83;0.88;;;;;;;;;;10508642;28;20105;-79
2022/09/05 04:43:20;;;;;;;0.55;0.55;;;;;;;;;;10513197;28;20036;-79
2022/09/05 04:48:27;;;;;;;1.10;0.65;;;;;;;;;;10534040;28;20150;-80
2022/09/05 04:53:42;;;;;;;0.70;0.70;;;;;;;;;;10533624;28;20066;-80
2022/09/05 04:58:55;;;;;;;0.88;0.80;;;;;;;;;;10498142;28;20416;-80
2022/09/05 05:04:06;;;;;;;0.65;0.60;;;;;;;;;;10516255;28;20458;-80
2022/09/05 05:09:16;;;;;;;0.68;0.60;;;;;;;;;;10499255;28;20064;-80
2022/09/05 05:14:26;;;;;;;1.27;0.68;;;;;;;;;;10510242;28;20132;-80
2022/09/05 05:19:33;;;;;;;0.65;0.63;;;;;;;;;;10528503;28;20055;-80
2022/09/05 05:24:44;;;;;;;3.20;0.90;;;;;;;;;;10495640;28;20081;-80
2022/09/05 05:29:51;;;;;;;1.05;0.80;;;;;;;;;;10502356;28;20041;-81
2022/09/05 05:34:57;;;;;;;0.70;0.70;;;;;;;;;;10500876;28;20407;-80
2022/09/05 05:40:04;;;;;;;;;;;;;;;;;;10509390;28;20044;-80
2022/09/05 05:45:17;;;;;;;1.48;0.88;;;;;;;;;;10532612;28;19920;-80
2022/09/05 05:50:33;;;;;;;0.80;0.75;;;;;;;;;;10493746;28;20075;-80
2022/09/05 05:55:58;;;;;;;0.75;0.70;;;;;;;;;;10521131;28;20067;-80
2022/09/05 06:01:28;;;;;;;2.30;0.90;;;;;;;;;;10515376;28;20063;-79
2022/09/05 06:06:44;;;;;;;0.75;0.70;;;;;;;;;;10497566;28;20040;-80
2022/09/05 06:12:05;;;;;;;0.60;0.60;;;;;;;;;;10532495;28;20473;-80
2022/09/05 06:17:29;;;;;;;0.77;0.60;;;;;;;;;;10540656;28;20060;-79
2022/09/05 06:23:05;;;;;;;1.17;0.70;;;;;;;;;;10500933;28;20040;-79
2022/09/05 06:28:22;;;;;;;0.77;0.73;;;;;;;;;;10493250;28;20040;-80
2022/09/05 06:33:42;;;;;;;0.93;0.55;;;;;;;;;;10511866;28;20123;-80
2022/09/05 06:39:00;;;;;;;0.50;0.50;;;;;;;;;;10520307;28;20052;-80
2022/09/05 06:44:33;;;;;;;1.40;0.77;;;;;;;;;;10534124;28;20036;-81
2022/09/05 06:49:57;;;;;;;2.08;0.82;;;;;;;;;;10520601;28;20112;-80
2022/09/05 06:55:36;;;;;;;2.45;0.65;;;;;;;;;;10515685;28;20071;-80
2022/09/05 07:00:46;;;;;;;1.27;0.63;;;;;;;;;;10514991;28;20060;-81
2022/09/05 07:05:56;;;;;;;0.80;0.80;;;;;;;;;;10521051;28;20064;-80
2022/09/05 07:11:07;;;;;;;0.73;0.73;;;;;;;;;;10513072;28;20124;-80
2022/09/05 07:16:17;;;;;;;0.80;0.77;;;;;;;;;;10514831;28;20124;-80
2022/09/05 07:21:31;;;;;;;1.73;0.80;;;;;;;;;;10530130;28;20090;-80
2022/09/05 07:26:37;;;;;;;1.52;0.75;;;;;;;;;;10524218;28;20101;-80
2022/09/05 07:31:40;;;;;;;0.70;0.70;;;;;;;;;;10516357;28;20127;-80
2022/09/05 07:36:48;;;;;;;0.85;0.80;;;;;;;;;;10507496;28;20063;-80
2022/09/05 07:41:55;;;;;;;0.68;0.68;;;;;;;;;;10532623;28;20049;-80
2022/09/05 07:47:03;;;;;;;0.82;0.82;;;;;;;;;;10513581;28;20071;-80
2022/09/05 07:52:14;;;;;;;1.77;1.42;;;;;;;;;;10528802;28;20048;-80
2022/09/05 07:57:21;;;;;;;2.72;1.80;;;;;;;;;;10504102;28;20047;-80
2022/09/05 08:02:32;;;;;;;0.90;0.90;;;;;;;;;;10519487;28;20052;-80
2022/09/05 08:07:42;;;;;;;1.60;1.00;;;;;;;;;;10520561;28;20044;-80
2022/09/05 08:12:49;;;;;;;0.80;0.80;;;;;;;;;;10490611;28;20428;-81
2022/09/05 08:18:04;;;;;;;1.17;0.70;;;;;;;;;;10520449;28;20079;-80
2022/09/05 08:23:23;;;;;;;1.25;0.70;;;;;;;;;;10504041;28;20028;-80
2022/09/05 08:28:34;;;;;;;2.28;0.95;;;;;;;;;;10507402;28;20111;-80
2022/09/05 08:33:38;;;;;;;0.60;0.60;;;;;;;;;;10492087;28;20051;-80
2022/09/05 08:38:44;;;;;;;1.08;0.77;;;;;;;;;;10514753;28;20086;-81
2022/09/05 08:43:51;;;;;;;;;;;;;;;;;;10524109;28;20088;-80
2022/09/05 08:49:37;;;;;;;1.33;0.65;;;;;;;;;;10509935;28;19943;-81
2022/09/05 08:54:54;;;;;;;2.47;1.40;;;;;;;;;;10487679;28;20048;-81
2022/09/05 09:00:05;;;;;;;0.75;0.60;;;;;;;;;;10506253;28;20048;-80
2022/09/05 09:05:17;;;;;;;2.00;0.77;;;;;;;;;;10494690;28;20119;-80
2022/09/05 09:10:41;;;;;;;2.40;0.60;;;;;;;;;;10526283;28;20123;-80
2022/09/05 09:15:51;;;;;;;0.55;0.50;;;;;;;;;;10524545;28;20458;-80
2022/09/05 09:20:59;;;;;;;0.80;0.47;;;;;;;;;;10513362;28;20040;-80
2022/09/05 09:26:12;;;;;;;2.60;0.57;;;;;;;;;;10531110;28;20534;-81
2022/09/05 09:31:39;;;;;;;0.85;0.75;;;;;;;;;;10515784;28;20089;-80
2022/09/05 09:37:13;;;;;;;1.20;0.75;;;;;;;;;;10500364;28;20048;-80
2022/09/05 09:42:32;;;;;;;1.30;0.90;;;;;;;;;;10523444;28;20075;-80
2022/09/05 09:47:51;;;;;;;0.47;0.40;;;;;;;;;;10513830;28;20492;-81
2022/09/05 09:53:13;;;;;;;0.70;0.55;;;;;;;;;;10537037;28;20139;-81
2022/09/05 09:58:41;;;;;;;1.00;0.70;;;;;;;;;;10522368;28;20067;-81
2022/09/05 10:04:08;;;;;;;0.90;0.50;;;;;;;;;;10502617;28;20064;-80
2022/09/05 10:09:22;;;;;;;1.13;0.50;;;;;;;;;;10519407;28;20064;-80
2022/09/05 10:14:58;;;;;;;1.38;1.08;;;;;;;;;;10519812;28;20089;-80
2022/09/05 10:20:21;;;;;;;0.88;0.60;;;;;;;;;;10518521;28;20078;-80
2022/09/05 10:26:16;;;;;;;0.30;0.30;;;;;;;;;;10508221;28;20089;-80
2022/09/05 10:31:26;;;;;;;0.75;0.30;;;;;;;;;;10373253;28;20136;-80
2022/09/05 10:36:31;;;;;;;0.63;0.20;;;;;;;;;;10491152;28;20090;-80
2022/09/05 10:41:48;;;;;;;1.60;0.40;;;;;;;;;;10529953;28;20043;-80
2022/09/05 10:47:04;;;;;;;0.20;0.20;;;;;;;;;;10499108;28;20049;-80
2022/09/05 10:52:11;;;;;;;0.30;0.30;;;;;;;;;;10510252;28;20075;-80
2022/09/05 10:57:30;;;;;;;0.55;0.43;;;;;;;;;;10525627;28;20093;-80
2022/09/05 11:02:40;;;;;;;0.43;0.40;;;;;;;;;;10528125;28;20143;-80
2022/09/05 11:07:57;;;;;;;0.95;0.68;;;;;;;;;;10517333;28;20052;-80
2022/09/05 11:13:13;;;;;;;0.80;0.60;;;;;;;;;;10509506;28;20135;-80
2022/09/05 11:18:32;;;;;;;0.28;0.28;;;;;;;;;;10511482;28;20600;-81
2022/09/05 11:23:42;;;;;;;0.68;0.30;;;;;;;;;;10518801;28;20059;-81
2022/09/05 11:28:53;;;;;;;0.35;0.35;;;;;;;;;;10534514;28;20044;-80
2022/09/05 11:34:45;;;;;;;0.40;0.40;;;;;;;;;;10507869;28;20119;-80
2022/09/05 11:40:25;;;;;;;0.40;0.20;;;;;;;;;;10505476;28;20055;-80
2022/09/05 11:46:09;;;;;;;0.50;0.30;;;;;;;;;;10507110;28;20043;-80
2022/09/05 11:51:46;;;;;;;0.30;0.30;;;;;;;;;;10517504;28;20095;-80
2022/09/05 11:57:11;;;;;;;1.38;0.45;;;;;;;;;;10521626;28;20119;-80
2022/09/05 12:02:31;;;;;;;0.20;0.20;;;;;;;;;;10517070;28;20127;-80
2022/09/05 12:08:00;;;;;;;0.40;0.22;;;;;;;;;;10528705;28;20032;-81
2022/09/05 12:13:24;;;;;;;0.30;0.20;;;;;;;;;;10525452;28;20128;-80
2022/09/05 12:18:35;;;;;;;0.20;0.20;;;;;;;;;;10495258;28;20546;-80
2022/09/05 12:23:50;;;;;;;0.30;0.30;;;;;;;;;;10494400;28;20040;-81
2022/09/05 12:28:57;;;;;;;0.40;0.40;;;;;;;;;;10509053;28;20047;-80
2022/09/05 12:34:08;;;;;;;0.55;0.32;;;;;;;;;;10509074;28;20067;-80
2022/09/05 12:39:25;;;;;;;0.40;0.40;;;;;;;;;;10533533;28;20048;-81
2022/09/05 12:44:45;;;;;;;0.63;0.32;;;;;;;;;;10518519;28;20422;-80
2022/09/05 12:49:59;;;;;;;0.22;0.20;;;;;;;;;;10504127;28;20462;-80
2022/09/05 12:55:09;;;;;;;1.33;0.32;;;;;;;;;;10534375;28;20059;-80
2022/09/05 13:00:15;;;;;;;0.32;0.30;;;;;;;;;;10508622;28;20066;-81
2022/09/05 13:05:44;;;;;;;0.30;0.20;;;;;;;;;;10523718;28;20028;-80
2022/09/05 13:10:53;;;;;;;0.20;0.20;;;;;;;;;;10498928;28;20047;-80
2022/09/05 13:15:57;;;;;;;1.05;0.40;;;;;;;;;;10532549;28;20130;-80
2022/09/05 13:21:05;;;;;;;0.45;0.30;;;;;;;;;;10504974;28;20063;-80
2022/09/05 13:26:15;;;;;;;0.22;0.22;;;;;;;;;;10505631;28;20485;-80
2022/09/05 13:32:04;;;;;;;1.00;0.30;;;;;;;;;;10507945;28;20064;-80
2022/09/05 13:37:13;;;;;;;1.83;0.50;;;;;;;;;;10510573;28;20131;-80
2022/09/05 13:42:20;;;;;;;0.40;0.40;;;;;;;;;;10502677;28;20063;-80
2022/09/05 13:47:49;;;;;;;1.70;0.60;;;;;;;;;;10523580;28;20148;-80
2022/09/05 13:52:58;;;;;;;0.50;0.47;;;;;;;;;;10515666;28;20468;-80
2022/09/05 13:58:07;;;;;;;0.32;0.30;;;;;;;;;;10510439;28;20032;-80
2022/09/05 14:03:41;;;;;;;0.30;0.30;;;;;;;;;;10511173;28;20100;-81
2022/09/05 14:09:03;;;;;;;0.20;0.20;;;;;;;;;;10513387;28;20048;-80
2022/09/05 14:14:36;;;;;;;0.30;0.30;;;;;;;;;;10531812;28;20097;-80
2022/09/05 14:25:24;;;;;;;0.40;0.30;;;;;;;;;;10518580;28;20048;-81
2022/09/05 14:30:39;;;;;;;0.30;0.30;;;;;;;;;;10522462;28;20120;-81
2022/09/05 14:35:49;;;;;;;0.20;0.20;;;;;;;;;;10506949;28;20482;-80
2022/09/05 14:41:35;;;;;;;0.73;0.30;;;;;;;;;;10521936;28;20098;-81
2022/09/05 14:47:13;;;;;;;0.47;0.40;;;;;;;;;;10530632;28;20037;-80
2022/09/05 14:52:23;;;;;;;0.57;0.20;;;;;;;;;;10515668;28;20085;-80
2022/09/05 14:57:29;;;;;;;0.40;0.20;;;;;;;;;;10528628;28;20052;-80
2022/09/05 15:02:39;;;;;;;2.00;0.30;;;;;;;;;;10520840;28;20119;-80
2022/09/05 15:08:02;;;;;;;0.32;0.17;;;;;;;;;;10510061;28;20044;-81
2022/09/05 15:13:13;;;;;;;0.20;0.20;;;;;;;;;;10516028;28;20037;-80
2022/09/05 15:18:23;;;;;;;0.10;0.10;;;;;;;;;;10524137;28;20115;-80
2022/09/05 15:23:32;;;;;;;0.10;0.10;;;;;;;;;;10530492;28;20036;-80
2022/09/05 15:28:38;;;;;;;0.40;0.30;;;;;;;;;;10517555;28;20134;-81
2022/09/05 15:33:43;;;;;;;0.93;0.30;;;;;;;;;;10534208;28;20127;-81
2022/09/05 15:38:46;;;;;;;0.52;0.20;;;;;;;;;;10500869;28;20078;-81
2022/09/05 15:43:57;;;;;;;0.52;0.22;;;;;;;;;;10503459;28;20119;-80
2022/09/05 15:49:02;;;;;;;0.75;0.38;;;;;;;;;;10531056;28;20668;-80
2022/09/05 15:54:06;;;;;;;0.85;0.22;;;;;;;;;;10517188;28;20040;-80
2022/09/05 15:59:10;;;;;;;0.90;0.28;;;;;;;;;;10516719;28;20636;-81
2022/09/05 16:04:16;;;;;;;;;;;;;;;;;;10518305;28;20044;-81
2022/09/05 16:09:29;;;;;;;0.20;0.20;;;;;;;;;;10515797;28;19920;-80
2022/09/05 16:14:39;;;;;;;0.85;0.30;;;;;;;;;;10515647;28;20060;-80
2022/09/05 16:19:46;;;;;;;0.30;0.30;;;;;;;;;;10500479;28;20055;-80
2022/09/05 16:24:54;;;;;;;0.60;0.30;;;;;;;;;;10485494;28;20124;-80
2022/09/05 16:29:57;;;;;;;0.40;0.30;;;;;;;;;;10500677;28;20610;-79
2022/09/05 16:35:05;;;;;;;0.22;0.22;;;;;;;;;;10499772;28;20123;-80
2022/09/05 16:40:16;;;;;;;0.32;0.25;;;;;;;;;;10506070;28;20087;-81
2022/09/05 16:45:29;;;;;;;1.25;0.25;;;;;;;;;;10516166;28;20120;-80
2022/09/05 16:50:42;;;;;;;0.20;0.20;;;;;;;;;;10482794;28;20040;-80
2022/09/05 16:55:53;;;;;;;0.55;0.30;;;;;;;;;;10503219;28;20056;-81
2022/09/05 17:01:19;;;;;;;0.35;0.28;;;;;;;;;;10489441;28;20067;-80
2022/09/05 17:06:34;;;;;;;0.25;0.20;;;;;;;;;;10515426;28;20050;-80
2022/09/05 17:11:41;;;;;;;0.88;0.30;;;;;;;;;;10508088;28;20071;-80
2022/09/05 17:16:53;;;;;;;0.98;0.32;;;;;;;;;;10524833;28;20068;-80
2022/09/05 17:22:15;;;;;;;0.30;0.30;;;;;;;;;;10492377;28;20625;-80
2022/09/05 17:27:21;;;;;;;0.55;0.38;;;;;;;;;;10523728;28;20140;-80
2022/09/05 17:32:33;;;;;;;0.40;0.30;;;;;;;;;;10531784;28;20040;-80
2022/09/05 17:38:11;;;;;;;0.30;0.22;;;;;;;;;;10515849;28;20131;-80
2022/09/05 17:43:25;;;;;;;0.20;0.20;;;;;;;;;;10539659;28;20506;-80
2022/09/05 17:48:58;;;;;;;0.38;0.20;;;;;;;;;;10505808;28;20484;-80
2022/09/05 17:54:26;;;;;;;0.47;0.20;;;;;;;;;;10522739;28;20507;-81
2022/09/05 17:59:30;;;;;;;1.00;0.38;;;;;;;;;;10529916;28;20040;-80
2022/09/05 18:04:45;;;;;;;0.90;0.25;;;;;;;;;;10519936;28;20127;-80
2022/09/05 18:09:58;;;;;;;0.65;0.30;;;;;;;;;;10537674;28;20060;-79
2022/09/05 18:15:03;;;;;;;1.85;0.60;;;;;;;;;;10521198;28;20303;-80
2022/09/05 18:20:15;;;;;;;0.30;0.30;;;;;;;;;;10510674;28;20046;-80
2022/09/05 18:25:24;;;;;;;0.55;0.35;;;;;;;;;;10505515;28;20651;-82
2022/09/05 18:30:32;;;;;;;0.40;0.35;;;;;;;;;;10519981;28;20119;-80
2022/09/05 18:35:43;;;;;;;0.40;0.40;;;;;;;;;;10495558;28;20503;-80
2022/09/05 18:41:01;;;;;;;0.85;0.50;;;;;;;;;;10509907;28;20052;-80
2022/09/05 18:46:11;;;;;;;0.63;0.50;;;;;;;;;;10493394;28;20131;-80
2022/09/05 18:51:18;;;;;;;0.57;0.57;;;;;;;;;;10504158;28;20044;-80
2022/09/05 18:56:34;;;;;;;0.35;0.35;;;;;;;;;;10534734;28;20062;-80
2022/09/05 19:01:44;;;;;;;0.68;0.38;;;;;;;;;;10520150;28;20044;-80
2022/09/05 19:06:49;;;;;;;0.52;0.40;;;;;;;;;;10527795;28;20056;-80
2022/09/05 19:12:00;;;;;;;0.50;0.47;;;;;;;;;;10490598;28;20108;-80
2022/09/05 19:17:07;;;;;;;0.55;0.38;;;;;;;;;;10522960;28;20040;-80
2022/09/05 19:22:12;;;;;;;0.70;0.63;;;;;;;;;;10521908;28;20040;-80
2022/09/05 19:27:18;;;;;;;0.77;0.60;;;;;;;;;;10523787;28;20136;-80
2022/09/05 19:32:21;;;;;;;0.52;0.40;;;;;;;;;;10526750;28;20040;-80
2022/09/05 19:37:24;;;;;;;0.80;0.40;;;;;;;;;;10508120;28;20048;-80
2022/09/05 19:42:43;;;;;;;0.90;0.60;;;;;;;;;;10534069;28;20044;-81
2022/09/05 19:47:47;;;;;;;0.82;0.60;;;;;;;;;;10534191;28;20052;-80
2022/09/05 19:53:08;;;;;;;2.08;0.75;;;;;;;;;;10528649;28;20044;-80
2022/09/05 19:58:17;;;;;;;0.40;0.40;;;;;;;;;;10498776;28;20101;-79
2022/09/05 20:03:21;;;;;;;1.55;0.60;;;;;;;;;;10514530;28;20079;-79
2022/09/05 20:08:31;;;;;;;0.75;0.65;;;;;;;;;;10506386;28;20039;-80
2022/09/05 20:13:36;;;;;;;0.57;0.57;;;;;;;;;;10506935;28;20407;-79
2022/09/05 20:18:41;;;;;;;1.83;0.70;;;;;;;;;;10491044;28;20131;-80
2022/09/05 20:23:48;;;;;;;0.80;0.60;;;;;;;;;;10514458;28;20125;-79
2022/09/05 20:28:58;;;;;;;2.17;0.60;;;;;;;;;;10515058;28;20135;-80
2022/09/05 20:34:04;;;;;;;0.70;0.60;;;;;;;;;;10523774;28;20050;-79
2022/09/05 20:39:10;;;;;;;0.60;0.60;;;;;;;;;;10508624;28;20551;-79
2022/09/05 20:44:20;;;;;;;0.93;0.43;;;;;;;;;;10520167;28;20119;-79
2022/09/05 20:49:26;;;;;;;0.60;0.52;;;;;;;;;;10531401;28;20031;-80
2022/09/05 20:54:32;;;;;;;0.45;0.45;;;;;;;;;;10508122;28;20472;-80
2022/09/05 20:59:42;;;;;;;0.70;0.60;;;;;;;;;;10507173;28;20055;-79
2022/09/05 21:04:57;;;;;;;1.08;0.68;;;;;;;;;;10512721;28;20040;-80
2022/09/05 21:10:02;;;;;;;0.50;0.50;;;;;;;;;;10512710;28;20550;-79
2022/09/05 21:15:15;;;;;;;1.02;0.55;;;;;;;;;;10529741;28;20126;-80
2022/09/05 21:20:21;;;;;;;3.55;0.80;;;;;;;;;;10522215;28;20046;-80
2022/09/05 21:25:27;;;;;;;0.70;0.70;;;;;;;;;;10508070;28;20123;-80
2022/09/05 21:30:34;;;;;;;0.52;0.40;;;;;;;;;;10512816;28;20282;-79
2022/09/05 21:35:40;;;;;;;0.82;0.47;;;;;;;;;;10512654;28;20082;-80
2022/09/05 21:40:45;;;;;;;0.70;0.60;;;;;;;;;;10513323;28;20111;-80
2022/09/05 21:45:52;;;;;;;0.95;0.47;;;;;;;;;;10516381;28;20059;-80
2022/09/05 21:50:59;;;;;;;0.68;0.45;;;;;;;;;;10522199;28;20494;-80
2022/09/05 21:56:06;;;;;;;0.85;0.55;;;;;;;;;;10530868;28;20047;-79
2022/09/05 22:01:10;;;;;;;1.15;0.80;;;;;;;;;;10505237;28;20131;-79
2022/09/05 22:06:15;;;;;;;0.45;0.45;;;;;;;;;;10481889;28;20132;-80
2022/09/05 22:11:18;;;;;;;1.55;0.60;;;;;;;;;;10503352;28;20701;-79
2022/09/05 22:16:24;;;;;;;0.43;0.40;;;;;;;;;;10493643;28;20131;-80
2022/09/05 22:21:29;;;;;;;0.57;0.50;;;;;;;;;;10496992;28;20041;-79
2022/09/05 22:26:37;;;;;;;0.60;0.60;;;;;;;;;;10534115;28;20128;-80
2022/09/05 22:31:42;;;;;;;0.60;0.55;;;;;;;;;;10518825;28;20392;-80
2022/09/05 22:36:45;;;;;;;0.80;0.65;;;;;;;;;;10519028;28;20071;-79
2022/09/05 22:41:48;;;;;;;0.70;0.70;;;;;;;;;;10518332;28;20040;-80
2022/09/05 22:46:54;;;;;;;0.55;0.50;;;;;;;;;;10536521;28;20040;-80
2022/09/05 22:51:57;;;;;;;0.50;0.50;;;;;;;;;;10531650;28;20032;-79
2022/09/05 22:57:00;;;;;;;0.50;0.50;;;;;;;;;;10528108;28;20044;-80
2022/09/05 23:02:05;;;;;;;0.50;0.50;;;;;;;;;;10517419;28;20036;-80
2022/09/05 23:07:09;;;;;;;1.45;0.60;;;;;;;;;;10509578;28;20048;-80
2022/09/05 23:12:12;;;;;;;0.85;0.43;;;;;;;;;;10518969;28;20113;-79
2022/09/05 23:17:17;;;;;;;0.77;0.60;;;;;;;;;;10526899;28;20097;-80
2022/09/05 23:22:20;;;;;;;0.93;0.57;;;;;;;;;;10530135;28;20109;-80
2022/09/05 23:27:24;;;;;;;0.65;0.65;;;;;;;;;;10500204;28;20103;-80
2022/09/05 23:32:28;;;;;;;0.47;0.47;;;;;;;;;;10499744;28;20056;-80
2022/09/05 23:37:32;;;;;;;0.75;0.63;;;;;;;;;;10507214;28;20036;-79
2022/09/05 23:42:35;;;;;;;0.85;0.65;;;;;;;;;;10507649;28;20028;-81
2022/09/05 23:47:40;;;;;;;0.70;0.50;;;;;;;;;;10491832;28;20041;-80
2022/09/05 23:52:44;;;;;;;1.02;0.65;;;;;;;;;;10504980;28;20036;-80
2022/09/05 23:57:48;;;;;;;0.40;0.40;;;;;;;;;;10517724;28;20040;-79
